Tacoma, WA

5:52 AM PDT on May 26, 2018 (GMT -0700)
McChord Air Force Base

Weather History for KTCM - March, 2013

Change the Weather History Date:

Thursday, March 14, 2013

  Actual Average Record
Temperature  
Mean Temperature 50 °F -  
Max Temperature 52 °F 51 °F 64 °F (2005)
Min Temperature 47 °F 35 °F 27 °F (1958)
Degree Days  
Heating Degree Days 15    
Moisture  
Dew Point 49 °F    
Average Humidity 96    
Maximum Humidity 100    
Minimum Humidity 76    
Precipitation  
Precipitation 0.05 in - - ()
Sea Level Pressure  
Sea Level Pressure 30.09 in    
Wind  
Wind Speed 1 mph (WSW)    
Max Wind Speed 14 mph    
Max Gust Speed -    
Visibility 10 miles    
Events Rain    
Averages and records for this station are not official NWS values.
T = Trace of Precipitation, MM = Missing Value Source: NWS Daily Summary

Daily Weather History Graph

Daily Weather History Graph

Search for Another Location

Airport or City:

Astronomy

Mar. 14, 2013 Rise Set
Actual Time 7:24 AM PDT 7:14 PM PDT
Civil Twilight 6:53 AM PDT 7:45 PM PDT
Nautical Twilight 6:18 AM PDT 8:20 PM PDT
Astronomical Twilight 5:42 AM PDT 8:57 PM PDT
Moon 8:26 AM PDT (3/14) 10:52 PM PDT (3/14)
Length of Visible Light 12h 51m
Length of Day
11h 50m
Waxing Crescent, 9% of the Moon is Illuminated
Mar 14
Waxing Crescent
Mar 19
First Quarter
Mar 27
Full
Apr 2
Last Quarter
Apr 10
New

Hourly Weather History & Observations

Time (PDT) Temp. Dew Point Humidity Pressure Visibility Wind Dir Wind Speed Gust Speed Precip Events Conditions
12:13 AM 50.0 °F 50.0 °F 100% 30.10 in 10.0 mi Calm Calm - N/A   Overcast
12:38 AM 50.0 °F 50.0 °F 100% 30.10 in 10.0 mi Calm Calm - N/A   Overcast
12:43 AM 50.0 °F 50.0 °F 100% 30.10 in 10.0 mi Calm Calm - N/A   Overcast
12:45 AM 50.0 °F 50.0 °F 100% 30.10 in 10.0 mi North - - N/A   Overcast
12:55 AM 50.0 °F 50.0 °F 100% 30.10 in 10.0 mi Calm Calm - N/A   Overcast
12:58 AM 50.0 °F 49.8 °F 99% 30.10 in 10.0 mi Calm Calm - N/A   Overcast
1:23 AM 50.0 °F 50.0 °F 100% 30.08 in 10.0 mi Calm Calm - N/A   Overcast
1:48 AM 48.2 °F 48.2 °F 100% 30.09 in 10.0 mi Calm Calm - N/A   Overcast
1:58 AM 48.9 °F 48.7 °F 99% 30.11 in 10.0 mi Calm Calm - N/A   Overcast
2:28 AM 48.2 °F 48.2 °F 100% 30.08 in 10.0 mi Calm Calm - N/A   Overcast
2:58 AM 47.7 °F 47.5 °F 99% 30.12 in 10.0 mi Calm Calm - N/A   Overcast
3:13 AM 48.2 °F 46.4 °F 93% 30.08 in 10.0 mi Calm Calm - N/A   Overcast
3:58 AM 48.2 °F 48.0 °F 99% 30.09 in 10.0 mi Calm Calm - N/A   Overcast
4:58 AM 48.2 °F 48.2 °F 100% 30.06 in 9.0 mi Calm Calm - N/A   Overcast
5:58 AM 48.0 °F 47.7 °F 99% 30.06 in 10.0 mi Calm Calm - N/A   Overcast
6:23 AM 48.2 °F 48.2 °F 100% 30.06 in 10.0 mi Calm Calm - N/A   Overcast
6:58 AM 48.2 °F 48.0 °F 99% 30.09 in 10.0 mi Calm Calm - N/A   Overcast
7:13 AM 48.2 °F 48.2 °F 100% 30.05 in 10.0 mi Calm Calm - N/A   Overcast
7:43 AM 48.2 °F 48.2 °F 100% 30.07 in 10.0 mi Calm Calm - N/A   Overcast
7:58 AM 48.7 °F 48.6 °F 99% 30.09 in 10.0 mi Calm Calm - N/A   Overcast
8:13 AM 48.2 °F 48.2 °F 100% 30.07 in 10.0 mi Calm Calm - N/A   Overcast
8:28 AM 48.2 °F 48.2 °F 100% 30.08 in 10.0 mi Calm Calm - N/A   Overcast
8:36 AM 50.0 °F 48.2 °F 94% 30.07 in 10.0 mi Calm Calm - N/A   Overcast
8:58 AM 49.3 °F 49.1 °F 99% 30.09 in 10.0 mi Calm Calm - N/A   Overcast
9:03 AM 50.0 °F 50.0 °F 100% 30.08 in 10.0 mi Calm Calm - N/A   Overcast
9:04 AM 50.0 °F 50.0 °F 100% 30.08 in 10.0 mi Calm Calm - N/A   Overcast
9:14 AM 50.0 °F 50.0 °F 100% 30.08 in 10.0 mi Calm Calm - N/A   Overcast
9:34 AM 50.0 °F 50.0 °F 100% 30.08 in 10.0 mi Calm Calm - N/A   Overcast
9:54 AM 50.0 °F 50.0 °F 100% 30.08 in 10.0 mi NW 2.3 mph - N/A   Overcast
9:58 AM 49.5 °F 49.3 °F 99% 30.10 in 10.0 mi NW 1.2 mph - N/A   Overcast
10:14 AM 48.2 °F 48.2 °F 100% 30.09 in 10.0 mi NW 1.2 mph - N/A   Overcast
11:58 AM 49.3 °F 48.9 °F 99% 30.11 in 10.0 mi Calm Calm - N/A   Overcast
12:18 PM 50.0 °F 50.0 °F 100% 30.09 in 10.0 mi Calm Calm - N/A   Overcast
12:47 PM 50.0 °F 50.0 °F 100% 30.10 in 10.0 mi Calm Calm - N/A   Overcast
12:53 PM 50.0 °F 50.0 °F 100% 30.08 in 10.0 mi Calm Calm - N/A   Overcast
12:55 PM 50.7 °F 50.2 °F 98% 30.10 in 10.0 mi Calm Calm - N/A   Overcast
12:58 PM 50.7 °F 50.2 °F 98% 30.10 in 10.0 mi Calm Calm - N/A   Overcast
1:22 PM 51.8 °F 50.0 °F 94% 30.08 in 10.0 mi Calm Calm - N/A   Mostly Cloudy
1:24 PM 51.8 °F 50.0 °F 94% 30.08 in 10.0 mi Calm Calm - N/A   Mostly Cloudy
1:35 PM 51.8 °F 51.8 °F 100% 30.07 in 10.0 mi Calm Calm - N/A   Scattered Clouds
1:39 PM 51.8 °F 51.8 °F 100% 30.07 in 10.0 mi Calm Calm - N/A   Scattered Clouds
1:47 PM 53.6 °F 51.8 °F 94% 30.08 in 10.0 mi WSW 4.6 mph - N/A   Mostly Cloudy
1:49 PM 53.6 °F 51.8 °F 94% 30.08 in 10.0 mi WSW 4.6 mph - N/A   Mostly Cloudy
1:55 PM 52.9 °F 51.1 °F 94% 30.09 in 10.0 mi West 4.6 mph - N/A   Mostly Cloudy
1:58 PM 52.9 °F 51.1 °F 94% 30.09 in 10.0 mi West 4.6 mph - N/A   Mostly Cloudy
2:55 PM 51.8 °F 49.3 °F 91% 30.09 in 10.0 mi West 6.9 mph - N/A   Overcast
2:58 PM 51.8 °F 49.3 °F 91% 30.09 in 10.0 mi West 6.9 mph - N/A   Overcast
3:06 PM 51.8 °F 48.2 °F 88% 30.07 in 10.0 mi West 5.8 mph - N/A   Overcast
3:09 PM 51.8 °F 48.2 °F 88% 30.07 in 10.0 mi West 5.8 mph - N/A   Overcast
3:29 PM 51.8 °F 48.2 °F 88% 30.08 in 10.0 mi WSW 9.2 mph - N/A   Overcast
3:56 PM 51.8 °F 46.4 °F 82% 30.09 in 10.0 mi WSW 13.8 mph - N/A   Scattered Clouds
3:58 PM 52.2 °F 47.1 °F 83% 30.10 in 10.0 mi WSW 12.7 mph - N/A   Scattered Clouds
4:58 PM 52.0 °F 45.3 °F 78% 30.10 in 10.0 mi SW 4.6 mph - N/A   Scattered Clouds
5:41 PM 51.8 °F 44.6 °F 76% 30.09 in 10.0 mi SW 6.9 mph - N/A Rain Light Rain
5:58 PM 50.9 °F 45.9 °F 83% 30.11 in 10.0 mi SSW 4.6 mph - 0.00 in Rain Light Rain
6:22 PM 50.0 °F 46.4 °F 87% 30.11 in 10.0 mi SW 3.5 mph - N/A   Overcast
6:27 PM 50.0 °F 46.4 °F 87% 30.11 in 10.0 mi SW 4.6 mph - N/A Rain Light Rain
6:58 PM 49.1 °F 47.1 °F 93% 30.13 in 6.0 mi Calm Calm - 0.02 in Rain Light Rain
7:55 PM 48.2 °F 48.2 °F 100% 30.10 in 10.0 mi Calm Calm - N/A   Overcast
7:58 PM 48.0 °F 47.8 °F 99% 30.12 in 10.0 mi Calm Calm - 0.02 in   Overcast
8:45 PM 48.2 °F 48.2 °F 100% 30.11 in 10.0 mi Calm Calm - N/A   Overcast
8:51 PM 48.2 °F 48.2 °F 100% 30.11 in 10.0 mi Calm Calm - N/A Rain Light Rain
8:58 PM 47.8 °F 47.5 °F 99% 30.13 in 10.0 mi Calm Calm - 0.01 in Rain Light Rain
9:20 PM 48.2 °F 48.2 °F 100% 30.12 in 10.0 mi Calm Calm - N/A   Overcast
9:24 PM 48.2 °F 48.2 °F 100% 30.12 in 10.0 mi Calm Calm - N/A   Light Drizzle
9:31 PM 48.2 °F 48.2 °F 100% 30.12 in 10.0 mi Calm Calm - N/A   Overcast
9:58 PM 47.8 °F 47.7 °F 99% 30.15 in 10.0 mi Calm Calm - 0.00 in   Overcast
10:58 PM 47.7 °F 47.5 °F 99% 30.16 in 10.0 mi SSE 2.3 mph - N/A   Overcast
11:58 PM 49.3 °F 48.7 °F 98% 30.18 in 10.0 mi Calm Calm - N/A   Overcast